createdAt,value
2022-10-23T08:45:19.421Z,16.90
2022-10-23T08:47:55.901Z,17.80
2022-10-23T08:50:59.709Z,23.20
2022-10-23T08:53:46.994Z,16.90
2022-10-23T08:56:24.580Z,18.40
2022-10-23T08:59:20.639Z,18.20
2022-10-23T09:01:58.736Z,18.70
2022-10-23T09:04:26.716Z,17.90
2022-10-23T09:09:45.353Z,21.60
2022-10-23T09:12:26.143Z,18.90
2022-10-23T09:15:23.314Z,18.50
2022-10-23T09:18:08.009Z,19.90
2022-10-23T09:20:36.455Z,18.80
2022-10-23T09:23:17.704Z,27.80
2022-10-23T09:25:47.763Z,22.40
2022-10-23T09:28:21.308Z,21.40
2022-10-23T09:30:50.476Z,18.40
2022-10-23T09:33:24.742Z,21.20
2022-10-23T09:35:59.213Z,18.40
2022-10-23T09:38:34.818Z,18.70
2022-10-23T09:41:36.567Z,19.20
2022-10-23T09:44:07.426Z,19.60
2022-10-23T09:46:42.558Z,20.60
2022-10-23T09:49:30.797Z,18.80
2022-10-23T09:52:01.575Z,46.30
2022-10-23T09:54:37.206Z,28.80
2022-10-23T09:57:22.261Z,24.20
2022-10-23T09:59:56.373Z,22.50
2022-10-23T10:02:33.189Z,19.90
2022-10-23T10:08:24.796Z,20.40
2022-10-23T10:11:04.847Z,17.80
2022-10-23T10:13:32.672Z,20.50
2022-10-23T10:16:03.954Z,21.40
2022-10-23T10:18:49.286Z,22.10
2022-10-23T10:21:29.007Z,23.50
2022-10-23T10:23:56.887Z,19.10
2022-10-23T10:26:53.156Z,25.90
2022-10-23T10:29:44.329Z,19.10
2022-10-23T10:32:17.609Z,22.80
2022-10-23T10:35:00.634Z,21.20
2022-10-23T10:38:03.233Z,20.20
2022-10-23T10:40:38.439Z,21.60
2022-10-23T10:43:18.625Z,19.50
2022-10-23T10:49:00.390Z,15.40
2022-10-23T10:51:47.442Z,17.90
2022-10-23T10:55:12.850Z,18.90
2022-10-23T10:57:45.735Z,17.50
2022-10-23T11:00:20.814Z,15.30
2022-10-23T11:03:02.914Z,18.10
2022-10-23T11:05:47.000Z,13.90
2022-10-23T11:08:28.233Z,14.60
2022-10-23T11:11:03.119Z,15.20
2022-10-23T11:13:42.690Z,14.80
2022-10-23T11:16:15.684Z,15.80
2022-10-23T11:18:50.605Z,11.80
2022-10-23T11:21:40.763Z,10.90
2022-10-23T11:24:54.571Z,13.00
2022-10-23T11:27:47.744Z,11.60
2022-10-23T11:30:57.295Z,13.50
2022-10-23T11:33:56.267Z,22.40
2022-10-23T11:36:49.570Z,12.90
2022-10-23T11:39:26.464Z,13.30
2022-10-23T11:42:15.854Z,10.30
2022-10-23T11:44:48.608Z,13.10
2022-10-23T11:47:38.891Z,13.70
2022-10-23T11:50:07.261Z,11.40
2022-10-23T11:52:50.391Z,10.50
2022-10-23T11:55:27.428Z,11.00
2022-10-23T11:58:07.332Z,14.50
2022-10-23T12:00:40.906Z,12.00
2022-10-23T12:03:22.760Z,10.90
2022-10-23T12:06:00.659Z,9.10
2022-10-23T12:08:32.547Z,24.40
2022-10-23T12:11:00.632Z,11.60
2022-10-23T12:13:37.757Z,12.80
2022-10-23T12:16:10.015Z,15.40
2022-10-23T12:18:49.447Z,18.20
2022-10-23T12:21:21.201Z,15.70
2022-10-23T12:24:22.720Z,14.50
2022-10-23T12:27:04.576Z,12.90
2022-10-23T12:30:13.130Z,16.00
2022-10-23T12:33:03.185Z,17.90
2022-10-23T12:35:53.204Z,15.30
2022-10-23T12:38:33.844Z,16.80
2022-10-23T12:41:15.156Z,18.00
2022-10-23T12:43:53.763Z,12.40
2022-10-23T12:46:39.959Z,18.20
2022-10-23T12:49:18.784Z,14.50
2022-10-23T12:52:01.735Z,13.60
2022-10-23T12:54:38.560Z,13.00
2022-10-23T12:57:30.635Z,9.80
2022-10-23T13:00:04.794Z,9.50
2022-10-23T13:02:35.013Z,10.10
2022-10-23T13:05:08.221Z,11.50
2022-10-23T13:07:44.875Z,10.60
2022-10-23T13:10:16.798Z,19.10
2022-10-23T13:13:06.019Z,21.20
2022-10-23T13:15:40.080Z,8.90
2022-10-23T13:18:10.201Z,9.30
2022-10-23T13:20:43.062Z,7.10
2022-10-23T13:23:34.315Z,7.70
2022-10-23T13:26:03.378Z,11.30
2022-10-23T13:28:42.402Z,8.80
2022-10-23T13:31:10.181Z,11.30
2022-10-23T13:33:40.789Z,9.50
2022-10-23T13:36:15.072Z,8.80
2022-10-23T13:39:02.412Z,8.70
2022-10-23T13:41:37.647Z,9.60
2022-10-23T13:44:05.967Z,8.50
2022-10-23T13:46:33.840Z,11.10
2022-10-23T13:49:01.945Z,9.30
2022-10-23T13:51:33.571Z,8.90
2022-10-23T13:54:01.634Z,8.00
2022-10-23T13:56:29.788Z,13.30
2022-10-23T13:58:57.727Z,9.10
2022-10-23T14:01:33.026Z,8.10
2022-10-23T14:04:00.994Z,10.80
2022-10-23T14:06:28.852Z,10.30
2022-10-23T14:08:57.440Z,9.90
2022-10-23T14:11:25.667Z,8.90
2022-10-23T14:13:53.470Z,10.10
2022-10-23T14:16:21.759Z,7.50
2022-10-23T14:18:49.929Z,9.60
2022-10-23T14:21:22.639Z,8.60
2022-10-23T14:23:52.218Z,11.90
2022-10-23T14:26:23.629Z,9.70
2022-10-23T14:28:56.903Z,11.20
2022-10-23T14:31:27.034Z,9.60
2022-10-23T14:34:00.884Z,10.40
2022-10-23T14:36:38.520Z,11.40
2022-10-23T14:39:17.471Z,9.90
2022-10-23T14:41:45.240Z,11.70
2022-10-23T14:44:13.130Z,11.90
2022-10-23T14:46:41.000Z,11.90
2022-10-23T14:49:08.961Z,28.50
2022-10-23T14:51:36.899Z,33.00
2022-10-23T14:54:07.275Z,15.30
2022-10-23T14:56:40.757Z,16.00
2022-10-23T14:59:10.900Z,26.10
2022-10-23T15:01:45.069Z,50.20
2022-10-23T15:04:15.674Z,101.80
2022-10-23T15:06:44.309Z,80.60
2022-10-23T15:09:12.162Z,21.30
2022-10-23T15:11:39.966Z,13.70
2022-10-23T15:14:08.421Z,13.60
2022-10-23T15:16:41.535Z,11.10
2022-10-23T15:19:15.468Z,12.20
2022-10-23T15:21:47.875Z,20.40
2022-10-23T15:24:17.449Z,32.70
2022-10-23T15:26:45.510Z,24.00
2022-10-23T15:29:15.020Z,26.50
2022-10-23T15:32:03.498Z,32.20
2022-10-23T15:34:32.654Z,30.00
2022-10-23T15:37:01.938Z,14.30
2022-10-23T15:39:35.724Z,17.70
2022-10-23T15:42:05.578Z,17.20
2022-10-23T15:44:33.964Z,15.00
2022-10-23T15:47:01.846Z,10.60
2022-10-23T15:49:30.079Z,13.20
2022-10-23T15:51:58.673Z,10.80
2022-10-23T15:54:30.542Z,9.40
2022-10-23T15:57:02.545Z,14.40
2022-10-23T15:59:32.455Z,11.90
2022-10-23T16:02:00.662Z,9.50
2022-10-23T16:04:28.816Z,11.60
2022-10-23T16:06:56.973Z,12.30
2022-10-23T16:09:24.816Z,15.00
2022-10-23T16:11:52.621Z,11.30
2022-10-23T16:14:21.290Z,14.80
2022-10-23T16:16:49.151Z,16.20
2022-10-23T16:19:17.187Z,18.60
2022-10-23T16:21:44.999Z,32.90
2022-10-23T16:24:12.870Z,28.10
2022-10-23T16:26:40.726Z,24.10
2022-10-23T16:29:10.024Z,27.20
2022-10-23T16:31:38.060Z,18.40
2022-10-23T16:34:07.182Z,10.20
2022-10-23T16:36:35.312Z,12.00
2022-10-23T16:39:07.657Z,12.00
2022-10-23T16:41:54.318Z,14.80
2022-10-23T16:44:24.606Z,11.20
2022-10-23T16:47:00.260Z,11.70
2022-10-23T16:49:29.930Z,9.60
2022-10-23T16:51:58.280Z,16.30
2022-10-23T16:54:26.143Z,12.40
2022-10-23T16:56:54.054Z,15.30
2022-10-23T16:59:21.849Z,13.90
2022-10-23T17:01:49.780Z,12.90
2022-10-23T17:04:17.741Z,11.20
2022-10-23T17:06:45.611Z,18.90
2022-10-23T17:09:13.466Z,13.70
2022-10-23T17:11:44.251Z,13.40
2022-10-23T17:14:18.228Z,12.70
2022-10-23T17:16:48.571Z,13.20
2022-10-23T17:19:40.039Z,21.10
2022-10-23T17:22:12.678Z,22.40
2022-10-23T17:24:42.178Z,16.30
2022-10-23T17:27:10.003Z,16.30
2022-10-23T17:29:38.507Z,15.80
2022-10-23T17:32:06.452Z,22.40
2022-10-23T17:34:34.592Z,25.00
2022-10-23T17:37:02.628Z,23.10
2022-10-23T17:39:30.616Z,27.40
2022-10-23T17:41:58.487Z,32.50
2022-10-23T17:44:26.295Z,46.90
2022-10-23T17:46:55.331Z,30.70
2022-10-23T17:49:24.593Z,36.20
2022-10-23T17:51:55.138Z,54.50
2022-10-23T17:54:25.050Z,49.80
2022-10-23T17:56:53.134Z,50.40
2022-10-23T17:59:22.108Z,52.90
2022-10-23T18:01:50.387Z,48.90
2022-10-23T18:04:20.871Z,35.50
2022-10-23T18:06:52.635Z,35.70
2022-10-23T18:09:22.624Z,34.10
2022-10-23T18:11:51.842Z,31.60
2022-10-23T18:14:21.593Z,35.10
2022-10-23T18:16:52.603Z,51.40
2022-10-23T18:19:20.717Z,53.10
2022-10-23T18:21:49.250Z,62.20
2022-10-23T18:24:18.113Z,86.40
2022-10-23T18:26:48.278Z,74.80
2022-10-23T18:29:17.779Z,68.70
2022-10-23T18:31:48.223Z,68.90
2022-10-23T18:34:22.780Z,62.50
2022-10-23T18:36:53.286Z,57.60
2022-10-23T18:39:24.203Z,61.60
2022-10-23T18:41:54.820Z,65.80
2022-10-23T18:44:24.474Z,70.70
2022-10-23T18:46:52.414Z,65.90
2022-10-23T18:49:20.492Z,62.40
2022-10-23T18:51:49.957Z,63.70
2022-10-23T18:54:20.425Z,53.10
2022-10-23T18:56:49.541Z,58.60
2022-10-23T18:59:19.572Z,63.90
2022-10-23T19:01:48.029Z,62.50
2022-10-23T19:04:18.061Z,63.30
2022-10-23T19:06:47.658Z,65.70
2022-10-23T19:09:16.351Z,88.20
2022-10-23T19:11:45.375Z,87.60
2022-10-23T19:14:13.174Z,91.00
2022-10-23T19:16:55.981Z,96.30
2022-10-23T19:19:27.686Z,87.00
2022-10-23T19:21:56.454Z,114.00
2022-10-23T19:24:32.065Z,108.50
2022-10-23T19:27:01.994Z,103.80
2022-10-23T19:29:30.627Z,107.00
2022-10-23T19:31:59.049Z,109.50
2022-10-23T19:34:26.849Z,101.40
2022-10-23T19:36:55.096Z,101.00
2022-10-23T19:39:23.506Z,99.90
2022-10-23T19:41:51.825Z,104.40
2022-10-23T19:44:20.562Z,118.20
2022-10-23T19:46:48.744Z,108.60
2022-10-23T19:49:17.546Z,99.60
2022-10-23T19:51:50.881Z,98.10
2022-10-23T19:54:21.069Z,108.60
2022-10-23T19:56:49.537Z,98.80
2022-10-23T19:59:17.986Z,100.40
2022-10-23T20:01:48.173Z,109.10
2022-10-23T20:04:18.588Z,112.10
2022-10-23T20:06:47.329Z,123.00
2022-10-23T20:09:15.759Z,131.80
2022-10-23T20:11:45.338Z,142.00
2022-10-23T20:14:13.663Z,123.50
2022-10-23T20:16:44.902Z,111.50
2022-10-23T20:21:49.666Z,117.70
2022-10-23T20:24:19.491Z,110.80
2022-10-23T20:26:53.612Z,102.70
2022-10-23T20:29:22.398Z,91.80
2022-10-23T20:31:50.235Z,108.90
2022-10-23T20:34:19.243Z,117.90
2022-10-23T20:36:49.449Z,108.00
2022-10-23T20:39:20.828Z,100.30
2022-10-23T20:41:48.627Z,95.10
2022-10-23T20:44:18.432Z,94.90
2022-10-23T20:46:46.557Z,101.00
2022-10-23T20:49:14.957Z,92.90
2022-10-23T20:51:42.879Z,87.40
2022-10-23T20:54:10.878Z,67.00
2022-10-23T20:56:39.874Z,74.10
2022-10-23T20:59:11.371Z,83.80
2022-10-23T21:01:45.281Z,86.50
2022-10-23T21:04:14.008Z,102.40
2022-10-23T21:07:04.456Z,95.50
2022-10-23T21:09:31.006Z,89.50
2022-10-23T21:11:58.756Z,63.10
2022-10-23T21:14:27.309Z,60.60
2022-10-23T21:16:55.074Z,74.50
2022-10-23T21:19:22.912Z,62.10
2022-10-23T21:21:50.950Z,57.60
2022-10-23T21:24:18.864Z,52.90
2022-10-23T21:26:46.873Z,55.80
2022-10-23T21:29:19.438Z,65.30
2022-10-23T21:31:52.837Z,56.60
2022-10-23T21:34:20.618Z,60.50
2022-10-23T21:37:11.230Z,62.90
2022-10-23T21:39:36.774Z,54.20
2022-10-23T21:42:04.611Z,61.80
2022-10-23T21:44:32.357Z,59.90
2022-10-23T21:47:00.053Z,63.80
2022-10-23T21:49:27.867Z,64.20
2022-10-23T21:51:55.599Z,59.00
2022-10-23T21:54:23.309Z,54.70
2022-10-23T21:56:53.621Z,53.90
2022-10-23T21:59:27.685Z,43.30
2022-10-23T22:01:58.157Z,45.00
2022-10-23T22:04:26.034Z,55.20
2022-10-23T22:06:53.906Z,49.50
2022-10-23T22:09:22.018Z,38.70
2022-10-23T22:11:54.207Z,36.90
2022-10-23T22:14:23.885Z,43.80
2022-10-23T22:16:52.318Z,45.10
2022-10-23T22:19:22.261Z,45.60
2022-10-23T22:21:51.348Z,43.80
2022-10-23T22:24:19.779Z,49.10
2022-10-23T22:26:51.204Z,41.60
2022-10-23T22:29:22.586Z,42.60
2022-10-23T22:31:51.008Z,44.30
2022-10-23T22:34:28.726Z,39.40
2022-10-23T22:37:11.408Z,48.20
2022-10-23T22:39:40.282Z,40.20
2022-10-23T22:42:08.728Z,42.40
2022-10-23T22:44:36.460Z,38.30
2022-10-23T22:47:04.585Z,35.50
2022-10-23T22:49:32.369Z,33.30
2022-10-23T22:52:00.416Z,31.30
2022-10-23T22:54:30.583Z,34.50
2022-10-23T22:56:58.438Z,37.90
2022-10-23T22:59:26.320Z,40.10
2022-10-23T23:01:54.557Z,35.40
2022-10-23T23:04:38.929Z,33.50
2022-10-23T23:07:10.120Z,35.50
2022-10-23T23:09:43.684Z,35.80
2022-10-23T23:12:14.041Z,30.70
2022-10-23T23:14:42.691Z,28.50
2022-10-23T23:17:10.748Z,33.50
2022-10-23T23:19:39.388Z,35.70
2022-10-23T23:22:07.146Z,30.90
2022-10-23T23:24:35.000Z,34.00
2022-10-23T23:27:02.832Z,31.60
2022-10-23T23:29:32.017Z,26.20
2022-10-23T23:31:59.774Z,27.60
2022-10-23T23:34:27.556Z,25.70
2022-10-23T23:36:55.268Z,27.40
2022-10-23T23:39:23.008Z,23.30
2022-10-23T23:41:50.805Z,26.70
2022-10-23T23:44:18.512Z,24.30
2022-10-23T23:46:46.237Z,23.90
2022-10-23T23:49:13.938Z,25.90
2022-10-23T23:51:42.052Z,21.30
2022-10-23T23:54:09.999Z,24.60
2022-10-23T23:56:38.159Z,22.60
2022-10-23T23:59:05.935Z,21.50
